sensor_id;sensor_type;location;lat;lon;timestamp;pressure;altitude;pressure_sealevel;temperature;humidity
71938;BME280;59810;48.800;9.086;2022-08-11T00:00:34;98061.22;;;18.03;51.78
71938;BME280;59810;48.800;9.086;2022-08-11T00:03:04;98053.59;;;18.00;51.89
71938;BME280;59810;48.800;9.086;2022-08-11T00:05:32;98052.91;;;17.84;52.46
71938;BME280;59810;48.800;9.086;2022-08-11T00:07:59;98047.06;;;17.67;53.32
71938;BME280;59810;48.800;9.086;2022-08-11T00:10:27;98050.00;;;17.76;52.83
71938;BME280;59810;48.800;9.086;2022-08-11T00:13:01;98047.78;;;17.78;53.06
71938;BME280;59810;48.800;9.086;2022-08-11T00:15:41;98045.66;;;17.69;52.64
71938;BME280;59810;48.800;9.086;2022-08-11T00:18:08;98048.69;;;17.68;53.10
71938;BME280;59810;48.800;9.086;2022-08-11T00:20:41;98043.94;;;17.79;52.65
71938;BME280;59810;48.800;9.086;2022-08-11T00:23:11;98040.59;;;17.87;52.69
71938;BME280;59810;48.800;9.086;2022-08-11T00:25:50;98046.28;;;17.95;52.33
71938;BME280;59810;48.800;9.086;2022-08-11T00:30:52;98040.44;;;17.73;52.60
71938;BME280;59810;48.800;9.086;2022-08-11T00:33:21;98039.69;;;17.67;52.93
71938;BME280;59810;48.800;9.086;2022-08-11T00:35:49;98049.84;;;17.57;53.68
71938;BME280;59810;48.800;9.086;2022-08-11T00:38:15;98049.81;;;17.62;52.73
71938;BME280;59810;48.800;9.086;2022-08-11T00:43:19;98053.72;;;17.46;53.23
71938;BME280;59810;48.800;9.086;2022-08-11T00:49:23;98051.41;;;17.29;54.25
71938;BME280;59810;48.800;9.086;2022-08-11T01:00:15;98045.25;;;17.08;55.43
71938;BME280;59810;48.800;9.086;2022-08-11T01:22:45;98043.16;;;16.90;55.13
71938;BME280;59810;48.800;9.086;2022-08-11T01:49:14;98034.44;;;16.88;55.75
71938;BME280;59810;48.800;9.086;2022-08-11T01:52:16;98024.59;;;16.97;55.51
71938;BME280;59810;48.800;9.086;2022-08-11T02:00:09;98031.22;;;16.75;54.96
71938;BME280;59810;48.800;9.086;2022-08-11T02:03:08;98027.09;;;16.83;55.32
71938;BME280;59810;48.800;9.086;2022-08-11T02:08:34;98028.22;;;16.77;56.68
71938;BME280;59810;48.800;9.086;2022-08-11T02:11:28;98020.09;;;16.62;56.87
71938;BME280;59810;48.800;9.086;2022-08-11T02:22:24;98031.09;;;16.21;59.01
71938;BME280;59810;48.800;9.086;2022-08-11T02:25:35;98036.00;;;16.34;58.05
71938;BME280;59810;48.800;9.086;2022-08-11T02:28:03;98030.50;;;16.44;57.84
71938;BME280;59810;48.800;9.086;2022-08-11T02:30:38;98024.72;;;16.56;56.82
71938;BME280;59810;48.800;9.086;2022-08-11T02:33:23;98016.56;;;16.66;56.30
71938;BME280;59810;48.800;9.086;2022-08-11T02:38:53;98023.63;;;16.57;56.14
71938;BME280;59810;48.800;9.086;2022-08-11T02:47:10;98023.16;;;16.40;56.45
71938;BME280;59810;48.800;9.086;2022-08-11T02:49:57;98034.63;;;16.32;56.61
71938;BME280;59810;48.800;9.086;2022-08-11T02:52:40;98023.47;;;16.33;56.38
71938;BME280;59810;48.800;9.086;2022-08-11T02:55:23;98027.81;;;16.34;58.01
71938;BME280;59810;48.800;9.086;2022-08-11T02:58:14;98022.88;;;16.41;56.51
71938;BME280;59810;48.800;9.086;2022-08-11T03:00:48;98033.75;;;16.46;56.51
71938;BME280;59810;48.800;9.086;2022-08-11T03:03:35;98031.91;;;16.37;57.76
71938;BME280;59810;48.800;9.086;2022-08-11T03:08:53;98021.47;;;16.49;56.86
71938;BME280;59810;48.800;9.086;2022-08-11T03:15:01;98023.47;;;16.23;57.71
71938;BME280;59810;48.800;9.086;2022-08-11T03:18:03;98028.38;;;16.26;58.17
71938;BME280;59810;48.800;9.086;2022-08-11T03:20:45;98030.00;;;16.32;57.53
71938;BME280;59810;48.800;9.086;2022-08-11T03:23:28;98029.19;;;16.32;57.51
71938;BME280;59810;48.800;9.086;2022-08-11T03:28:44;98040.13;;;16.06;58.30
71938;BME280;59810;48.800;9.086;2022-08-11T03:31:35;98045.31;;;16.08;58.01
71938;BME280;59810;48.800;9.086;2022-08-11T03:34:05;98045.84;;;16.10;57.99
71938;BME280;59810;48.800;9.086;2022-08-11T03:41:52;98054.28;;;16.08;58.09
71938;BME280;59810;48.800;9.086;2022-08-11T03:44:31;98061.13;;;15.96;58.75
71938;BME280;59810;48.800;9.086;2022-08-11T03:50:26;98046.13;;;15.93;58.70
71938;BME280;59810;48.800;9.086;2022-08-11T04:17:47;98043.69;;;15.97;58.71
71938;BME280;59810;48.800;9.086;2022-08-11T04:23:27;98043.72;;;15.76;59.97
71938;BME280;59810;48.800;9.086;2022-08-11T04:37:11;98042.03;;;15.91;59.84
71938;BME280;59810;48.800;9.086;2022-08-11T04:55:31;98041.72;;;17.02;58.00
71938;BME280;59810;48.800;9.086;2022-08-11T04:58:30;98054.75;;;17.16;57.32
71938;BME280;59810;48.800;9.086;2022-08-11T05:04:49;98054.03;;;17.44;56.65
71938;BME280;59810;48.800;9.086;2022-08-11T05:12:42;98054.97;;;17.68;55.52
71938;BME280;59810;48.800;9.086;2022-08-11T05:15:18;98063.06;;;17.79;55.12
71938;BME280;59810;48.800;9.086;2022-08-11T05:18:14;98058.94;;;17.81;54.82
71938;BME280;59810;48.800;9.086;2022-08-11T05:21:05;98059.53;;;17.78;54.83
71938;BME280;59810;48.800;9.086;2022-08-11T05:23:56;98056.47;;;17.85;54.22
71938;BME280;59810;48.800;9.086;2022-08-11T05:26:47;98054.81;;;17.89;54.25
71938;BME280;59810;48.800;9.086;2022-08-11T05:32:19;98061.09;;;17.84;53.73
71938;BME280;59810;48.800;9.086;2022-08-11T05:35:09;98065.22;;;17.82;53.90
71938;BME280;59810;48.800;9.086;2022-08-11T05:37:43;98062.50;;;17.82;53.67
71938;BME280;59810;48.800;9.086;2022-08-11T05:40:27;98061.69;;;17.81;52.48
71938;BME280;59810;48.800;9.086;2022-08-11T05:43:13;98063.59;;;17.81;52.84
71938;BME280;59810;48.800;9.086;2022-08-11T05:46:02;98067.44;;;17.80;53.04
71938;BME280;59810;48.800;9.086;2022-08-11T05:48:48;98069.34;;;17.79;52.55
71938;BME280;59810;48.800;9.086;2022-08-11T05:51:35;98062.78;;;17.80;52.37
71938;BME280;59810;48.800;9.086;2022-08-11T05:54:19;98063.59;;;17.81;52.83
71938;BME280;59810;48.800;9.086;2022-08-11T05:57:04;98065.50;;;17.80;52.91
71938;BME280;59810;48.800;9.086;2022-08-11T05:59:31;98069.88;;;17.81;52.97
71938;BME280;59810;48.800;9.086;2022-08-11T06:02:04;98070.94;;;17.85;53.39
71938;BME280;59810;48.800;9.086;2022-08-11T06:04:32;98064.06;;;17.93;53.74
71938;BME280;59810;48.800;9.086;2022-08-11T06:07:05;98065.59;;;18.04;53.64
71938;BME280;59810;48.800;9.086;2022-08-11T06:09:34;98064.47;;;18.05;51.15
71938;BME280;59810;48.800;9.086;2022-08-11T06:12:07;98066.78;;;17.93;51.97
71938;BME280;59810;48.800;9.086;2022-08-11T06:14:33;98072.38;;;18.07;53.69
71938;BME280;59810;48.800;9.086;2022-08-11T06:17:02;98064.81;;;17.98;51.25
71938;BME280;59810;48.800;9.086;2022-08-11T06:19:32;98067.09;;;17.86;51.19
71938;BME280;59810;48.800;9.086;2022-08-11T06:22:03;98066.03;;;17.82;51.71
71938;BME280;59810;48.800;9.086;2022-08-11T06:24:29;98068.19;;;17.85;53.01
71938;BME280;59810;48.800;9.086;2022-08-11T06:26:56;98070.34;;;17.88;52.84
71938;BME280;59810;48.800;9.086;2022-08-11T06:29:23;98069.94;;;18.05;53.41
71938;BME280;59810;48.800;9.086;2022-08-11T06:31:52;98065.78;;;18.13;53.28
71938;BME280;59810;48.800;9.086;2022-08-11T06:36:58;98073.06;;;18.22;51.79
71938;BME280;59810;48.800;9.086;2022-08-11T06:39:44;98069.78;;;18.20;51.35
71938;BME280;59810;48.800;9.086;2022-08-11T06:42:35;98070.91;;;18.19;52.12
71938;BME280;59810;48.800;9.086;2022-08-11T06:46:07;98068.66;;;18.26;51.52
71938;BME280;59810;48.800;9.086;2022-08-11T06:48:15;98076.50;;;18.33;51.82
71938;BME280;59810;48.800;9.086;2022-08-11T06:50:48;98069.66;;;18.35;51.33
71938;BME280;59810;48.800;9.086;2022-08-11T06:53:32;98076.09;;;18.45;52.02
71938;BME280;59810;48.800;9.086;2022-08-11T06:55:59;98064.28;;;18.49;51.21
71938;BME280;59810;48.800;9.086;2022-08-11T06:58:47;98066.41;;;18.57;51.27
71938;BME280;59810;48.800;9.086;2022-08-11T07:14:04;98066.66;;;19.27;50.94
71938;BME280;59810;48.800;9.086;2022-08-11T07:16:49;98064.56;;;19.38;50.60
71938;BME280;59810;48.800;9.086;2022-08-11T07:19:26;98064.41;;;19.48;50.68
71938;BME280;59810;48.800;9.086;2022-08-11T07:22:12;98055.47;;;19.62;50.22
71938;BME280;59810;48.800;9.086;2022-08-11T07:27:55;98050.78;;;19.81;49.62
71938;BME280;59810;48.800;9.086;2022-08-11T07:30:41;98051.22;;;19.88;50.03
71938;BME280;59810;48.800;9.086;2022-08-11T07:33:07;98046.88;;;20.01;49.30
71938;BME280;59810;48.800;9.086;2022-08-11T07:35:42;98050.03;;;20.08;48.67
71938;BME280;59810;48.800;9.086;2022-08-11T07:38:22;98046.84;;;20.19;47.81
71938;BME280;59810;48.800;9.086;2022-08-11T07:41:08;98051.53;;;20.33;47.45
71938;BME280;59810;48.800;9.086;2022-08-11T07:43:34;98050.31;;;20.39;48.23
71938;BME280;59810;48.800;9.086;2022-08-11T07:46:02;98050.75;;;20.46;47.31
71938;BME280;59810;48.800;9.086;2022-08-11T07:48:47;98045.47;;;20.63;47.38
71938;BME280;59810;48.800;9.086;2022-08-11T07:51:32;98045.25;;;20.73;47.36
71938;BME280;59810;48.800;9.086;2022-08-11T07:54:16;98056.44;;;20.77;46.33
71938;BME280;59810;48.800;9.086;2022-08-11T07:56:43;98047.59;;;20.80;46.96
71938;BME280;59810;48.800;9.086;2022-08-11T07:59:10;98048.31;;;20.86;46.30
71938;BME280;59810;48.800;9.086;2022-08-11T08:01:55;98043.53;;;20.91;46.49
71938;BME280;59810;48.800;9.086;2022-08-11T08:04:40;98042.31;;;20.97;46.10
71938;BME280;59810;48.800;9.086;2022-08-11T08:07:25;98048.06;;;21.09;44.69
71938;BME280;59810;48.800;9.086;2022-08-11T08:10:11;98045.75;;;21.17;45.67
71938;BME280;59810;48.800;9.086;2022-08-11T08:12:56;98034.34;;;21.23;45.25
71938;BME280;59810;48.800;9.086;2022-08-11T08:15:40;98037.88;;;21.37;45.61
71938;BME280;59810;48.800;9.086;2022-08-11T08:18:25;98036.44;;;21.40;45.34
71938;BME280;59810;48.800;9.086;2022-08-11T08:20:53;98044.75;;;21.49;44.95
71938;BME280;59810;48.800;9.086;2022-08-11T08:23:37;98038.72;;;21.60;43.80
71938;BME280;59810;48.800;9.086;2022-08-11T08:26:05;98049.88;;;21.64;44.05
71938;BME280;59810;48.800;9.086;2022-08-11T08:28:53;98049.63;;;21.74;43.35
71938;BME280;59810;48.800;9.086;2022-08-11T08:31:24;98038.41;;;21.84;43.01
71938;BME280;59810;48.800;9.086;2022-08-11T08:33:50;98041.38;;;21.96;42.77
71938;BME280;59810;48.800;9.086;2022-08-11T08:36:16;98045.03;;;22.05;42.20
71938;BME280;59810;48.800;9.086;2022-08-11T08:38:49;98050.47;;;22.19;41.58
71938;BME280;59810;48.800;9.086;2022-08-11T08:41:23;98044.00;;;22.24;42.42
71938;BME280;59810;48.800;9.086;2022-08-11T08:43:54;98052.31;;;22.32;41.45
71938;BME280;59810;48.800;9.086;2022-08-11T08:46:27;98053.09;;;22.33;41.52
71938;BME280;59810;48.800;9.086;2022-08-11T08:48:57;98048.28;;;22.39;41.91
71938;BME280;59810;48.800;9.086;2022-08-11T08:51:25;98042.84;;;22.47;41.90
71938;BME280;59810;48.800;9.086;2022-08-11T08:54:05;98043.03;;;22.59;40.98
71938;BME280;59810;48.800;9.086;2022-08-11T08:56:31;98035.78;;;22.72;40.59
71938;BME280;59810;48.800;9.086;2022-08-11T08:59:02;98042.09;;;22.73;41.10
71938;BME280;59810;48.800;9.086;2022-08-11T09:01:42;98027.59;;;22.81;40.89
71938;BME280;59810;48.800;9.086;2022-08-11T09:04:08;98038.16;;;22.87;40.90
71938;BME280;59810;48.800;9.086;2022-08-11T09:06:36;98039.13;;;23.00;39.26
71938;BME280;59810;48.800;9.086;2022-08-11T09:09:07;98045.78;;;23.08;39.72
71938;BME280;59810;48.800;9.086;2022-08-11T09:11:37;98042.41;;;23.19;39.08
71938;BME280;59810;48.800;9.086;2022-08-11T09:14:26;98039.84;;;23.23;38.18
71938;BME280;59810;48.800;9.086;2022-08-11T09:17:12;98034.81;;;23.34;37.90
71938;BME280;59810;48.800;9.086;2022-08-11T09:19:38;98041.78;;;23.40;37.65
71938;BME280;59810;48.800;9.086;2022-08-11T09:22:05;98039.84;;;23.49;37.12
71938;BME280;59810;48.800;9.086;2022-08-11T09:24:49;98042.63;;;23.57;36.11
71938;BME280;59810;48.800;9.086;2022-08-11T09:27:34;98053.34;;;23.68;36.20
71938;BME280;59810;48.800;9.086;2022-08-11T09:30:00;98042.66;;;23.75;36.41
71938;BME280;59810;48.800;9.086;2022-08-11T09:32:26;98044.56;;;23.83;35.48
71938;BME280;59810;48.800;9.086;2022-08-11T09:34:53;98044.38;;;23.97;35.05
71938;BME280;59810;48.800;9.086;2022-08-11T09:37:20;98039.97;;;24.04;35.11
71938;BME280;59810;48.800;9.086;2022-08-11T09:40:06;98033.47;;;24.17;35.07
71938;BME280;59810;48.800;9.086;2022-08-11T09:42:51;98031.69;;;24.21;33.82
71938;BME280;59810;48.800;9.086;2022-08-11T09:45:36;98035.88;;;24.36;34.59
71938;BME280;59810;48.800;9.086;2022-08-11T09:48:03;98042.34;;;24.49;34.25
71938;BME280;59810;48.800;9.086;2022-08-11T09:50:31;98036.63;;;24.54;33.64
71938;BME280;59810;48.800;9.086;2022-08-11T09:52:58;98035.09;;;24.65;33.91
71938;BME280;59810;48.800;9.086;2022-08-11T09:55:24;98026.00;;;24.65;33.22
71938;BME280;59810;48.800;9.086;2022-08-11T09:57:50;98043.03;;;24.75;33.58
71938;BME280;59810;48.800;9.086;2022-08-11T10:00:35;98032.41;;;24.86;33.48
71938;BME280;59810;48.800;9.086;2022-08-11T10:03:11;98031.47;;;24.82;34.46
71938;BME280;59810;48.800;9.086;2022-08-11T10:05:38;98027.56;;;24.83;34.53
71938;BME280;59810;48.800;9.086;2022-08-11T10:08:27;98016.50;;;24.83;32.56
71938;BME280;59810;48.800;9.086;2022-08-11T10:10:55;98028.44;;;24.96;33.14
71938;BME280;59810;48.800;9.086;2022-08-11T10:13:32;98030.88;;;25.06;32.71
71938;BME280;59810;48.800;9.086;2022-08-11T10:16:06;98022.75;;;25.01;31.04
71938;BME280;59810;48.800;9.086;2022-08-11T10:18:34;98033.31;;;25.07;32.06
71938;BME280;59810;48.800;9.086;2022-08-11T10:23:51;98022.25;;;25.07;31.88
71938;BME280;59810;48.800;9.086;2022-08-11T10:26:35;98028.72;;;25.11;30.76
71938;BME280;59810;48.800;9.086;2022-08-11T10:29:32;98024.53;;;25.26;30.63
71938;BME280;59810;48.800;9.086;2022-08-11T10:32:22;98011.97;;;25.37;30.89
71938;BME280;59810;48.800;9.086;2022-08-11T10:35:07;98021.13;;;25.50;30.57
71938;BME280;59810;48.800;9.086;2022-08-11T10:37:37;98021.63;;;25.64;31.22
71938;BME280;59810;48.800;9.086;2022-08-11T10:40:05;98007.09;;;25.55;30.42
71938;BME280;59810;48.800;9.086;2022-08-11T10:42:31;98006.50;;;25.70;31.00
71938;BME280;59810;48.800;9.086;2022-08-11T10:45:16;98012.34;;;25.69;30.53
71938;BME280;59810;48.800;9.086;2022-08-11T10:48:01;97998.94;;;25.92;29.92
71938;BME280;59810;48.800;9.086;2022-08-11T10:50:28;98005.16;;;25.77;29.37
71938;BME280;59810;48.800;9.086;2022-08-11T10:53:14;97995.69;;;25.78;29.45
71938;BME280;59810;48.800;9.086;2022-08-11T10:55:58;98006.84;;;26.02;29.63
71938;BME280;59810;48.800;9.086;2022-08-11T10:58:43;97993.47;;;26.04;29.04
71938;BME280;59810;48.800;9.086;2022-08-11T11:01:20;97992.47;;;26.21;30.01
71938;BME280;59810;48.800;9.086;2022-08-11T11:03:49;97993.56;;;26.41;29.35
71938;BME280;59810;48.800;9.086;2022-08-11T11:06:30;97989.63;;;26.66;29.57
71938;BME280;59810;48.800;9.086;2022-08-11T11:09:06;97981.09;;;26.83;28.56
71938;BME280;59810;48.800;9.086;2022-08-11T11:11:44;97978.31;;;26.83;28.44
71938;BME280;59810;48.800;9.086;2022-08-11T11:14:34;97982.28;;;26.70;28.10
71938;BME280;59810;48.800;9.086;2022-08-11T11:17:28;97989.19;;;27.01;28.11
71938;BME280;59810;48.800;9.086;2022-08-11T11:20:17;97980.56;;;27.30;27.93
71938;BME280;59810;48.800;9.086;2022-08-11T11:22:52;97975.03;;;27.58;28.03
71938;BME280;59810;48.800;9.086;2022-08-11T11:25:31;97976.75;;;27.35;27.13
71938;BME280;59810;48.800;9.086;2022-08-11T11:28:18;97966.09;;;27.09;26.21
71938;BME280;59810;48.800;9.086;2022-08-11T11:33:29;97965.00;;;27.66;27.25
71938;BME280;59810;48.800;9.086;2022-08-11T11:36:52;97954.97;;;27.49;27.32
71938;BME280;59810;48.800;9.086;2022-08-11T11:39:20;97965.66;;;27.90;26.81
71938;BME280;59810;48.800;9.086;2022-08-11T11:41:49;97949.59;;;28.28;25.96
71938;BME280;59810;48.800;9.086;2022-08-11T11:44:16;97953.84;;;28.37;25.82
71938;BME280;59810;48.800;9.086;2022-08-11T11:46:44;97954.59;;;28.06;25.02
71938;BME280;59810;48.800;9.086;2022-08-11T11:49:11;97948.13;;;28.30;25.18
71938;BME280;59810;48.800;9.086;2022-08-11T11:51:37;97950.22;;;28.05;24.72
71938;BME280;59810;48.800;9.086;2022-08-11T11:54:04;97935.38;;;28.45;26.12
71938;BME280;59810;48.800;9.086;2022-08-11T11:56:30;97947.47;;;28.37;25.42
71938;BME280;59810;48.800;9.086;2022-08-11T11:58:57;97938.84;;;28.73;24.95
71938;BME280;59810;48.800;9.086;2022-08-11T12:01:42;97935.06;;;29.17;24.76
71938;BME280;59810;48.800;9.086;2022-08-11T12:04:10;97935.59;;;29.41;23.70
71938;BME280;59810;48.800;9.086;2022-08-11T12:06:36;97932.22;;;29.71;24.20
71938;BME280;59810;48.800;9.086;2022-08-11T12:09:03;97925.47;;;29.72;23.63
71938;BME280;59810;48.800;9.086;2022-08-11T12:11:30;97933.47;;;30.16;23.33
71938;BME280;59810;48.800;9.086;2022-08-11T12:14:18;97926.75;;;30.43;23.53
71938;BME280;59810;48.800;9.086;2022-08-11T12:16:45;97940.94;;;30.57;22.38
71938;BME280;59810;48.800;9.086;2022-08-11T12:19:18;97939.72;;;30.32;22.07
71938;BME280;59810;48.800;9.086;2022-08-11T12:21:47;97940.47;;;30.29;22.37
71938;BME280;59810;48.800;9.086;2022-08-11T12:24:33;97922.94;;;29.44;22.06
71938;BME280;59810;48.800;9.086;2022-08-11T12:27:18;97923.00;;;29.67;22.74
71938;BME280;59810;48.800;9.086;2022-08-11T12:29:53;97926.09;;;29.85;23.05
71938;BME280;59810;48.800;9.086;2022-08-11T12:32:19;97925.84;;;30.35;22.79
71938;BME280;59810;48.800;9.086;2022-08-11T12:34:46;97919.00;;;30.29;22.03
71938;BME280;59810;48.800;9.086;2022-08-11T12:37:12;97916.94;;;30.03;22.11
71938;BME280;59810;48.800;9.086;2022-08-11T12:39:46;97917.97;;;30.64;22.39
71938;BME280;59810;48.800;9.086;2022-08-11T12:42:33;97912.00;;;30.92;22.64
71938;BME280;59810;48.800;9.086;2022-08-11T12:45:20;97908.25;;;30.81;21.39
71938;BME280;59810;48.800;9.086;2022-08-11T12:48:15;97911.69;;;30.97;22.45
71938;BME280;59810;48.800;9.086;2022-08-11T12:51:02;97908.63;;;31.36;21.25
71938;BME280;59810;48.800;9.086;2022-08-11T12:54:01;97905.41;;;31.34;21.46
71938;BME280;59810;48.800;9.086;2022-08-11T12:56:33;97899.34;;;31.62;20.90
71938;BME280;59810;48.800;9.086;2022-08-11T12:59:20;97895.09;;;31.38;21.23
71938;BME280;59810;48.800;9.086;2022-08-11T13:02:04;97889.25;;;30.60;20.92
71938;BME280;59810;48.800;9.086;2022-08-11T13:04:49;97881.88;;;30.75;21.19
71938;BME280;59810;48.800;9.086;2022-08-11T13:07:22;97888.28;;;30.52;21.21
71938;BME280;59810;48.800;9.086;2022-08-11T13:09:50;97873.59;;;30.82;21.42
71938;BME280;59810;48.800;9.086;2022-08-11T13:12:16;97879.63;;;30.57;21.68
71938;BME280;59810;48.800;9.086;2022-08-11T13:15:01;97876.31;;;31.35;21.00
71938;BME280;59810;48.800;9.086;2022-08-11T13:17:28;97889.16;;;31.76;20.19
71938;BME280;59810;48.800;9.086;2022-08-11T13:19:57;97870.28;;;32.07;19.63
71938;BME280;59810;48.800;9.086;2022-08-11T13:22:24;97877.97;;;32.17;19.71
71938;BME280;59810;48.800;9.086;2022-08-11T13:24:52;97883.81;;;32.45;19.03
71938;BME280;59810;48.800;9.086;2022-08-11T13:27:22;97884.88;;;32.27;19.86
71938;BME280;59810;48.800;9.086;2022-08-11T13:29:51;97881.09;;;32.12;19.59
71938;BME280;59810;48.800;9.086;2022-08-11T13:32:39;97873.16;;;32.62;19.36
71938;BME280;59810;48.800;9.086;2022-08-11T13:35:09;97873.97;;;32.66;19.29
71938;BME280;59810;48.800;9.086;2022-08-11T13:37:36;97868.34;;;32.11;19.00
71938;BME280;59810;48.800;9.086;2022-08-11T13:40:03;97866.00;;;32.68;19.45
71938;BME280;59810;48.800;9.086;2022-08-11T13:42:29;97861.38;;;32.93;18.80
71938;BME280;59810;48.800;9.086;2022-08-11T13:44:55;97861.28;;;32.79;19.47
71938;BME280;59810;48.800;9.086;2022-08-11T13:47:22;97861.13;;;32.58;19.96
71938;BME280;59810;48.800;9.086;2022-08-11T13:49:49;97857.31;;;32.84;19.30
71938;BME280;59810;48.800;9.086;2022-08-11T13:52:16;97860.19;;;32.39;18.91
71938;BME280;59810;48.800;9.086;2022-08-11T13:54:45;97852.72;;;32.06;19.85
71938;BME280;59810;48.800;9.086;2022-08-11T13:57:13;97847.38;;;31.50;19.83
71938;BME280;59810;48.800;9.086;2022-08-11T13:59:40;97846.19;;;32.32;19.54
71938;BME280;59810;48.800;9.086;2022-08-11T14:02:12;97842.69;;;31.57;19.21
71938;BME280;59810;48.800;9.086;2022-08-11T14:04:44;97850.91;;;31.80;19.40
71938;BME280;59810;48.800;9.086;2022-08-11T14:07:11;97844.75;;;32.08;19.24
71938;BME280;59810;48.800;9.086;2022-08-11T14:09:43;97840.16;;;32.27;19.56
71938;BME280;59810;48.800;9.086;2022-08-11T14:12:30;97822.84;;;32.69;18.53
71938;BME280;59810;48.800;9.086;2022-08-11T14:15:30;97813.59;;;32.03;19.62
71938;BME280;59810;48.800;9.086;2022-08-11T14:20:28;97827.03;;;33.00;18.18
71938;BME280;59810;48.800;9.086;2022-08-11T14:23:15;97813.66;;;32.68;18.48
71938;BME280;59810;48.800;9.086;2022-08-11T14:25:43;97817.22;;;32.07;18.71
71938;BME280;59810;48.800;9.086;2022-08-11T14:28:32;97817.72;;;31.35;19.15
71938;BME280;59810;48.800;9.086;2022-08-11T14:31:01;97822.91;;;31.36;19.46
71938;BME280;59810;48.800;9.086;2022-08-11T14:33:31;97812.09;;;32.16;19.20
71938;BME280;59810;48.800;9.086;2022-08-11T14:35:58;97827.16;;;32.01;17.92
71938;BME280;59810;48.800;9.086;2022-08-11T14:38:24;97822.25;;;31.50;19.44
71938;BME280;59810;48.800;9.086;2022-08-11T14:40:50;97812.06;;;32.12;19.97
71938;BME280;59810;48.800;9.086;2022-08-11T14:43:35;97818.00;;;32.55;18.94
71938;BME280;59810;48.800;9.086;2022-08-11T14:46:19;97811.13;;;33.29;18.09
71938;BME280;59810;48.800;9.086;2022-08-11T14:49:06;97813.41;;;32.91;18.36
71938;BME280;59810;48.800;9.086;2022-08-11T14:51:34;97809.44;;;32.96;18.19
71938;BME280;59810;48.800;9.086;2022-08-11T14:54:00;97800.88;;;32.67;18.21
71938;BME280;59810;48.800;9.086;2022-08-11T14:56:44;97797.06;;;32.31;18.08
71938;BME280;59810;48.800;9.086;2022-08-11T14:59:11;97788.94;;;32.15;17.98
71938;BME280;59810;48.800;9.086;2022-08-11T15:01:37;97789.41;;;32.87;17.15
71938;BME280;59810;48.800;9.086;2022-08-11T15:04:22;97787.94;;;33.25;17.61
71938;BME280;59810;48.800;9.086;2022-08-11T15:06:51;97791.59;;;33.47;17.40
71938;BME280;59810;48.800;9.086;2022-08-11T15:09:17;97791.22;;;33.80;16.79
71938;BME280;59810;48.800;9.086;2022-08-11T15:11:45;97784.84;;;34.29;16.22
71938;BME280;59810;48.800;9.086;2022-08-11T15:14:29;97778.44;;;34.11;16.96
71938;BME280;59810;48.800;9.086;2022-08-11T15:17:14;97788.44;;;34.30;16.77
71938;BME280;59810;48.800;9.086;2022-08-11T15:19:44;97789.16;;;34.80;16.58
71938;BME280;59810;48.800;9.086;2022-08-11T15:22:29;97779.09;;;34.79;16.86
71938;BME280;59810;48.800;9.086;2022-08-11T15:25:13;97772.44;;;33.59;17.42
71938;BME280;59810;48.800;9.086;2022-08-11T15:27:40;97763.59;;;34.43;17.43
71938;BME280;59810;48.800;9.086;2022-08-11T15:30:26;97764.34;;;34.64;16.74
71938;BME280;59810;48.800;9.086;2022-08-11T15:33:14;97767.09;;;34.89;16.24
71938;BME280;59810;48.800;9.086;2022-08-11T15:36:02;97767.16;;;34.61;16.12
71938;BME280;59810;48.800;9.086;2022-08-11T15:38:53;97772.78;;;34.61;16.88
71938;BME280;59810;48.800;9.086;2022-08-11T15:41:21;97759.38;;;35.04;15.75
71938;BME280;59810;48.800;9.086;2022-08-11T15:44:13;97762.22;;;34.97;16.22
71938;BME280;59810;48.800;9.086;2022-08-11T15:47:03;97760.78;;;34.32;17.08
71938;BME280;59810;48.800;9.086;2022-08-11T15:49:33;97760.91;;;35.19;15.62
71938;BME280;59810;48.800;9.086;2022-08-11T15:52:09;97744.75;;;34.47;16.41
71938;BME280;59810;48.800;9.086;2022-08-11T15:54:39;97747.75;;;35.06;16.06
71938;BME280;59810;48.800;9.086;2022-08-11T15:57:06;97754.22;;;34.96;15.75
71938;BME280;59810;48.800;9.086;2022-08-11T15:59:52;97747.69;;;35.20;15.70
71938;BME280;59810;48.800;9.086;2022-08-11T16:02:36;97747.22;;;33.98;16.66
71938;BME280;59810;48.800;9.086;2022-08-11T16:05:23;97745.56;;;33.23;17.45
71938;BME280;59810;48.800;9.086;2022-08-11T16:07:51;97750.69;;;33.10;18.10
71938;BME280;59810;48.800;9.086;2022-08-11T16:10:19;97746.00;;;32.41;17.90
71938;BME280;59810;48.800;9.086;2022-08-11T16:12:55;97746.28;;;32.22;18.65
71938;BME280;59810;48.800;9.086;2022-08-11T16:15:28;97747.00;;;32.85;17.80
71938;BME280;59810;48.800;9.086;2022-08-11T16:18:17;97744.28;;;32.92;18.36
71938;BME280;59810;48.800;9.086;2022-08-11T16:20:44;97738.63;;;32.15;17.81
71938;BME280;59810;48.800;9.086;2022-08-11T16:23:11;97741.69;;;31.93;18.78
71938;BME280;59810;48.800;9.086;2022-08-11T16:25:40;97732.97;;;32.05;19.06
71938;BME280;59810;48.800;9.086;2022-08-11T16:28:08;97728.63;;;31.60;20.18
71938;BME280;59810;48.800;9.086;2022-08-11T16:30:39;97723.56;;;31.72;19.45
71938;BME280;59810;48.800;9.086;2022-08-11T16:33:09;97721.97;;;31.71;18.81
71938;BME280;59810;48.800;9.086;2022-08-11T16:35:36;97733.22;;;31.38;19.92
71938;BME280;59810;48.800;9.086;2022-08-11T16:38:23;97722.84;;;31.01;20.10
71938;BME280;59810;48.800;9.086;2022-08-11T16:41:01;97717.19;;;31.27;20.35
71938;BME280;59810;48.800;9.086;2022-08-11T16:43:29;97723.53;;;31.24;20.46
71938;BME280;59810;48.800;9.086;2022-08-11T16:46:34;97719.31;;;31.45;19.36
71938;BME280;59810;48.800;9.086;2022-08-11T16:49:22;97718.47;;;31.00;19.29
71938;BME280;59810;48.800;9.086;2022-08-11T16:51:49;97714.50;;;31.01;20.35
71938;BME280;59810;48.800;9.086;2022-08-11T16:54:18;97722.16;;;31.11;19.86
71938;BME280;59810;48.800;9.086;2022-08-11T16:56:51;97727.31;;;31.09;20.08
71938;BME280;59810;48.800;9.086;2022-08-11T16:59:21;97724.03;;;31.00;20.38
71938;BME280;59810;48.800;9.086;2022-08-11T17:01:56;97725.94;;;30.59;21.03
71938;BME280;59810;48.800;9.086;2022-08-11T17:04:40;97722.28;;;30.55;20.20